Campiña-No se requiere un especial cuidado respecto a la situación meteorológica.   -   No hay avisos

Informes METAR

 

LEZL - Sevilla, Spain
Distancia de la estación: ENE 8km
Actualización: 19/01/2021 19:00
Muy nuboso
Muy nuboso
 Viento de calm
Viento: Calma
Temperatura: 13°C
Rocío: 9°C
Humedad: 77%
Barómetro: 1022 hPa
Nubes: Muy nuboso
Visibilidad: 10 km
Detalles de las nubes: Poco nuboso 1128 m
Muy nuboso 1341 m
2021/01/19 18:00 LEZL 191800Z 00000KT 9999 FEW037 BKN044 13/09 Q1022 NOSIG
LEMO - Morón, Spain
Distancia de la estación: SE 43km
Actualización: 19/01/2021 19:00
Parcialmente nuboso
Parcialmente nuboso
 Viento de variable
Viento: variable 2 km/h
Temperatura: 11°C
Rocío: 8°C
Humedad: 82%
Barómetro: 1022 hPa
Nubes: Parcialmente nuboso
Visibilidad: 10 km
Detalles de las nubes: Parcialmente nuboso 1158 m
Parcialmente nuboso 1280 m
2021/01/19 18:00 LEMO 191800Z VRB01KT 9999 SCT038 SCT042 11/08 Q1022 NOSIG
LEJR - Jeréz, Spain
Distancia de la estación: S 71km
Actualización: 19/01/2021 19:00
Poco nuboso
Poco nuboso
 Viento de SSO
Viento: SSO 9 km/h
Temperatura: 11°C
Rocío: 9°C
Humedad: 88%
Barómetro: 1023 hPa
Nubes: Poco nuboso
Visibilidad: 10 km
Detalles de las nubes: Poco nuboso 1219 m
2021/01/19 18:00 LEJR 191800Z 20005KT 9999 FEW040 11/09 Q1023
 
LERT - Rota, Spain
Distancia de la estación: SSO 89km
Actualización: 19/01/2021 19:00
Muy nuboso
Muy nuboso
 Viento de S
Viento: S 13 km/h
Temperatura: 14°C
Rocío: 11°C
Humedad: 82%
Barómetro: 1023 hPa
Nubes: Muy nuboso
Visibilidad: 10 km
Detalles de las nubes: Muy nuboso 671 m
Muy nuboso 1128 m
2021/01/19 18:00 LERT 191800Z 18007KT 140V200 9999 BKN022 BKN037 14/11 Q1023 NOSIG
LEMG - Málaga, Spain
Distancia de la estación: ESE 157km
Actualización: 19/01/2021 19:00
Poco nuboso
Poco nuboso
 Viento de SE
Viento: SE 9 km/h
Temperatura: 12°C
Rocío: 9°C
Humedad: 82%
Barómetro: 1023 hPa
Nubes: Poco nuboso
Visibilidad: 10 km
Detalles de las nubes: Poco nuboso 305 m
2021/01/19 18:00 LEMG 191800Z 14005KT 9999 FEW010 12/09 Q1023 NOSIG
LEBA - Córdoba, Spain
Distancia de la estación: ENE 115km
Actualización: 19/01/2021 19:00
Despejado
Despejado
 Viento de SO
Viento: SO 6 km/h
Temperatura: 9°C
Rocío: 5°C
Humedad: 76%
Barómetro: 1022 hPa
Resumen: Despejado
Visibilidad: mayor de 10 km
2021/01/19 18:00 LEBA 191800Z 22003KT CAVOK 09/05 Q1022
 
LEGR - Granada, Spain
Distancia de la estación: E 198km
Actualización: 19/01/2021 19:00
Despejado
Despejado
 Viento de SSO
Viento: SSO 13 km/h
Temperatura: 9°C
Sensación térmica: 7°C
Rocío: -2°C
Humedad: 46%
Barómetro: 1022 hPa
Resumen: Despejado
Visibilidad: mayor de 10 km
2021/01/19 18:00 LEGR 191800Z 21007KT CAVOK 09/M02 Q1022
LEAM - Almería, Spain
Distancia de la estación: E 326km
Actualización: 19/01/2021 19:00
Parcialmente nuboso
Parcialmente nuboso
 Viento de variable
Viento: variable 2 km/h
Temperatura: 13°C
Rocío: 10°C
Humedad: 82%
Barómetro: 1023 hPa
Nubes: Parcialmente nuboso
Visibilidad: 10 km
Detalles de las nubes: Parcialmente nuboso 610 m
2021/01/19 18:00 LEAM 191800Z VRB01KT 9999 SCT020 13/10 Q1023
LEMD - Madrid/Barajas, Spain
Distancia de la estación: NNE 402km
Actualización: 19/01/2021 19:00
Despejado
Despejado
 Viento de SSO
Viento: SSO 6 km/h
Temperatura: 5°C
Rocío: 0°C
Humedad: 70%
Barómetro: 1021 hPa
Resumen: Despejado
Visibilidad: mayor de 10 km
2021/01/19 18:00 LEMD 191800Z 20003KT 160V250 CAVOK 05/00 Q1021 NOSIG
 
LEVD - Valladolid, Spain
Distancia de la estación: N 492km
Actualización: 19/01/2021 19:00
Despejado
Despejado
 Viento de S
Viento: S 11 km/h
Temperatura: 4°C
Sensación térmica: 1°C
Rocío: 0°C
Humedad: 75%
Barómetro: 1018 hPa
Resumen: Despejado
Visibilidad: mayor de 10 km
2021/01/19 18:00 LEVD 191800Z 18006KT CAVOK 04/00 Q1018
LEBL - Barcelona, Spain
Distancia de la estación: NE 816km
Actualización: 19/01/2021 19:00
Poco nuboso
Poco nuboso
 Viento de OSO
Viento: OSO 13 km/h
Temperatura: 11°C
Rocío: 9°C
Humedad: 88%
Barómetro: 1022 hPa
Nubes: Poco nuboso
Visibilidad: 10 km
Detalles de las nubes: Poco nuboso 427 m
2021/01/19 18:00 LEBL 191800Z 24007KT 9999 FEW014 11/09 Q1022 NOSIG
LEVC - Valencia, Spain
Distancia de la estación: ENE 535km
Actualización: 19/01/2021 19:00
Despejado
Despejado
 Viento de N
Viento: N 6 km/h
Temperatura: 11°C
Rocío: 9°C
Humedad: 88%
Barómetro: 1021 hPa
Resumen: Despejado
Visibilidad: mayor de 10 km
2021/01/19 18:00 LEVC 191800Z 35003KT CAVOK 11/09 Q1021 NOSIG